Time;durP1;ratioP1;P1;durP2;ratioP2;P2;SDS_P1;SDS_P2;PMS_P1;PMS_P2;Temp;Humidity;BMP_temperature;BMP_pressure;BME280_temperature;BME280_humidity;BME280_pressure;Samples;Min_cycle;Max_cycle;Signal;HPM_P1;HPM_P2
2022/10/31 00:00:48;;;;;;;;;18.75;13.50;;;;;;;;5026544;28;51145;-56
2022/10/31 00:03:33;;;;;;;;;15.00;13.50;;;;;;;;5037434;28;51478;-55
2022/10/31 00:06:18;;;;;;;;;17.00;12.50;;;;;;;;5024762;28;51155;-54
2022/10/31 00:09:03;;;;;;;;;13.00;11.00;;;;;;;;5035750;28;51338;-54
2022/10/31 00:11:47;;;;;;;;;13.50;11.50;;;;;;;;5027881;28;51144;-55
2022/10/31 00:14:32;;;;;;;;;14.00;11.25;;;;;;;;5028363;28;51106;-52
2022/10/31 00:17:16;;;;;;;;;12.50;11.00;;;;;;;;5024882;28;51227;-54
2022/10/31 00:20:01;;;;;;;;;14.25;12.00;;;;;;;;5029505;28;51255;-55
2022/10/31 00:22:45;;;;;;;;;14.25;9.25;;;;;;;;5036323;28;51195;-54
2022/10/31 00:25:33;;;;;;;;;16.00;10.25;;;;;;;;5034352;28;51104;-55
2022/10/31 00:28:18;;;;;;;;;16.00;10.75;;;;;;;;5027012;28;51200;-55
2022/10/31 00:31:03;;;;;;;;;19.75;11.75;;;;;;;;5040287;28;51166;-53
2022/10/31 00:33:47;;;;;;;;;13.50;10.50;;;;;;;;5040446;28;50946;-56
2022/10/31 00:36:32;;;;;;;;;14.00;11.00;;;;;;;;5035076;28;51041;-58
2022/10/31 00:39:16;;;;;;;;;15.75;12.50;;;;;;;;5035666;28;51119;-55
2022/10/31 00:42:01;;;;;;;;;13.00;11.25;;;;;;;;5029364;28;51353;-55
2022/10/31 00:44:45;;;;;;;;;15.75;8.25;;;;;;;;5024738;28;51234;-56
2022/10/31 00:47:30;;;;;;;;;11.50;11.50;;;;;;;;5026174;28;51192;-56
2022/10/31 00:50:14;;;;;;;;;15.50;13.00;;;;;;;;5029048;28;51732;-57
2022/10/31 00:52:58;;;;;;;;;17.50;10.00;;;;;;;;5026223;28;52596;-55
2022/10/31 00:55:43;;;;;;;;;15.50;11.00;;;;;;;;5020919;28;51007;-51
2022/10/31 00:58:28;;;;;;;;;15.75;10.00;;;;;;;;5022544;28;51197;-57
2022/10/31 01:01:12;;;;;;;;;14.25;9.75;;;;;;;;5028605;28;51627;-54
2022/10/31 01:03:56;;;;;;;;;14.25;11.00;;;;;;;;5034324;28;51418;-57
2022/10/31 01:06:41;;;;;;;;;13.75;12.25;;;;;;;;5033925;28;51137;-57
2022/10/31 01:09:25;;;;;;;;;12.50;11.00;;;;;;;;5026469;28;51089;-54
2022/10/31 01:12:10;;;;;;;;;15.25;9.75;;;;;;;;5026220;28;51031;-56
2022/10/31 01:14:54;;;;;;;;;13.75;11.75;;;;;;;;5034905;28;51148;-55
2022/10/31 01:17:39;;;;;;;;;15.25;10.25;;;;;;;;5021827;28;51395;-55
2022/10/31 01:20:23;;;;;;;;;15.75;11.50;;;;;;;;5031061;28;51217;-55
2022/10/31 01:23:07;;;;;;;;;11.75;10.00;;;;;;;;5033110;28;52222;-53
2022/10/31 01:25:58;;;;;;;;;14.75;10.25;;;;;;;;5039337;28;51158;-55
2022/10/31 01:28:53;;;;;;;;;13.25;10.25;;;;;;;;5031197;28;51242;-51
2022/10/31 01:31:39;;;;;;;;;12.75;10.75;;;;;;;;5031426;28;51013;-54
2022/10/31 01:34:23;;;;;;;;;14.00;7.50;;;;;;;;5037955;28;51242;-54
2022/10/31 01:37:07;;;;;;;;;11.25;9.25;;;;;;;;5033061;28;51057;-55
2022/10/31 01:39:52;;;;;;;;;21.50;12.25;;;;;;;;5020050;28;51092;-55
2022/10/31 01:42:36;;;;;;;;;15.75;12.25;;;;;;;;5027343;28;51376;-55
2022/10/31 01:45:21;;;;;;;;;22.25;16.75;;;;;;;;5024301;28;51030;-57
2022/10/31 01:48:06;;;;;;;;;16.25;12.25;;;;;;;;5028277;28;51041;-56
2022/10/31 01:50:51;;;;;;;;;16.25;13.25;;;;;;;;5034506;28;51282;-54
2022/10/31 01:53:36;;;;;;;;;16.75;12.00;;;;;;;;5027319;28;51547;-55
2022/10/31 01:56:21;;;;;;;;;13.25;10.50;;;;;;;;5025623;28;51006;-56
2022/10/31 01:59:08;;;;;;;;;19.00;15.00;;;;;;;;5038676;28;51120;-55
2022/10/31 02:01:53;;;;;;;;;13.25;12.25;;;;;;;;5037366;28;51950;-53
2022/10/31 02:04:38;;;;;;;;;16.50;13.00;;;;;;;;5027740;28;51153;-54
2022/10/31 02:07:27;;;;;;;;;21.25;13.75;;;;;;;;5030836;28;51396;-56
2022/10/31 02:10:11;;;;;;;;;24.00;17.75;;;;;;;;5032348;28;51290;-57
2022/10/31 02:12:57;;;;;;;;;27.50;19.25;;;;;;;;5028308;28;51154;-57
2022/10/31 02:15:43;;;;;;;;;21.75;15.75;;;;;;;;5039047;28;51179;-57
2022/10/31 02:18:29;;;;;;;;;20.25;16.00;;;;;;;;5029548;28;51418;-56
2022/10/31 02:21:13;;;;;;;;;24.50;17.75;;;;;;;;5033180;28;51486;-55
2022/10/31 02:24:33;;;;;;;;;22.75;18.25;;;;;;;;5028555;28;51197;-55
2022/10/31 02:27:26;;;;;;;;;28.50;18.75;;;;;;;;4957180;28;51116;-55
2022/10/31 02:30:14;;;;;;;;;23.00;20.25;;;;;;;;5029686;28;51290;-54
2022/10/31 02:33:17;;;;;;;;;24.00;22.25;;;;;;;;5023975;28;51140;-55
2022/10/31 02:36:05;;;;;;;;;24.25;23.00;;;;;;;;5026553;28;51162;-55
2022/10/31 02:39:08;;;;;;;;;24.75;19.50;;;;;;;;5035884;28;51560;-54
2022/10/31 02:42:00;;;;;;;;;25.00;20.25;;;;;;;;5018683;28;51081;-54
2022/10/31 02:44:56;;;;;;;;;23.50;18.75;;;;;;;;5035353;28;51198;-57
2022/10/31 02:47:41;;;;;;;;;25.25;18.00;;;;;;;;5025897;28;51066;-54
2022/10/31 02:50:32;;;;;;;;;27.00;21.50;;;;;;;;5036418;28;50966;-55
2022/10/31 02:53:16;;;;;;;;;21.75;19.25;;;;;;;;5028070;28;51074;-54
2022/10/31 02:56:07;;;;;;;;;22.50;20.25;;;;;;;;5023837;28;51252;-55
2022/10/31 02:58:59;;;;;;;;;27.75;19.25;;;;;;;;5029360;28;51764;-55
2022/10/31 03:01:59;;;;;;;;;24.50;19.25;;;;;;;;5034100;28;51207;-56
2022/10/31 03:05:02;;;;;;;;;25.25;22.00;;;;;;;;5022945;28;51204;-55
2022/10/31 03:07:46;;;;;;;;;24.50;19.75;;;;;;;;5019335;28;51148;-57
2022/10/31 03:10:30;;;;;;;;;17.50;17.50;;;;;;;;5021495;28;51483;-55
2022/10/31 03:13:18;;;;;;;;;25.00;20.50;;;;;;;;5023294;28;51356;-54
2022/10/31 03:16:09;;;;;;;;;25.75;17.50;;;;;;;;5039127;28;51140;-55
2022/10/31 03:19:11;;;;;;;;;23.75;16.25;;;;;;;;5037484;28;51073;-54
2022/10/31 03:22:05;;;;;;;;;22.75;17.50;;;;;;;;5037117;28;51138;-54
2022/10/31 03:24:51;;;;;;;;;21.75;19.25;;;;;;;;5028930;28;51646;-55
2022/10/31 03:27:37;;;;;;;;;26.25;18.00;;;;;;;;5024169;28;51684;-57
2022/10/31 03:30:21;;;;;;;;;22.25;17.50;;;;;;;;5027640;28;51107;-54
2022/10/31 03:33:10;;;;;;;;;26.25;19.75;;;;;;;;5030715;28;51168;-55
2022/10/31 03:35:56;;;;;;;;;22.25;19.75;;;;;;;;5033820;28;52057;-54
2022/10/31 03:38:41;;;;;;;;;23.50;22.75;;;;;;;;5027021;28;52224;-51
2022/10/31 03:41:28;;;;;;;;;24.50;21.00;;;;;;;;5036446;28;51000;-57
2022/10/31 03:44:14;;;;;;;;;26.00;20.25;;;;;;;;5032414;28;51100;-57
2022/10/31 03:46:59;;;;;;;;;25.25;20.00;;;;;;;;5037778;28;51120;-54
2022/10/31 03:49:44;;;;;;;;;28.75;18.50;;;;;;;;5036062;28;51079;-52
2022/10/31 03:52:47;;;;;;;;;25.25;21.25;;;;;;;;5033192;28;51058;-53
2022/10/31 03:55:35;;;;;;;;;22.50;19.25;;;;;;;;5030047;28;51036;-51
2022/10/31 03:58:25;;;;;;;;;26.00;23.25;;;;;;;;5019765;28;51133;-53
2022/10/31 04:01:11;;;;;;;;;24.25;24.25;;;;;;;;5032568;28;51465;-58
2022/10/31 04:03:56;;;;;;;;;29.25;24.75;;;;;;;;5040137;28;51406;-54
2022/10/31 04:06:42;;;;;;;;;27.00;22.25;;;;;;;;5041455;28;51091;-56
2022/10/31 04:09:27;;;;;;;;;35.00;29.00;;;;;;;;5035162;28;51113;-54
2022/10/31 04:12:16;;;;;;;;;34.25;27.50;;;;;;;;5030956;28;51166;-53
2022/10/31 04:15:02;;;;;;;;;31.75;28.25;;;;;;;;5032244;28;51096;-55
2022/10/31 04:17:47;;;;;;;;;38.00;31.25;;;;;;;;5023998;28;51026;-53
2022/10/31 04:20:33;;;;;;;;;37.00;30.75;;;;;;;;5025184;28;51560;-54
2022/10/31 04:23:19;;;;;;;;;38.25;30.50;;;;;;;;5023134;28;51143;-55
2022/10/31 04:26:04;;;;;;;;;32.50;28.25;;;;;;;;5034069;28;51106;-55
2022/10/31 04:28:47;;;;;;;;;32.50;28.50;;;;;;;;5039152;28;51081;-58
2022/10/31 04:31:32;;;;;;;;;37.00;30.50;;;;;;;;5040128;28;51112;-54
2022/10/31 04:34:16;;;;;;;;;38.75;31.00;;;;;;;;5039302;28;51115;-54
2022/10/31 04:37:01;;;;;;;;;36.00;28.50;;;;;;;;5041172;28;51097;-55
2022/10/31 04:39:45;;;;;;;;;44.50;30.25;;;;;;;;5039773;28;51096;-53
2022/10/31 04:42:30;;;;;;;;;35.25;30.25;;;;;;;;5035921;28;51045;-54
2022/10/31 04:45:14;;;;;;;;;31.50;27.00;;;;;;;;5032887;28;51467;-53
2022/10/31 04:47:58;;;;;;;;;33.75;28.50;;;;;;;;5040164;28;51128;-54
2022/10/31 04:50:43;;;;;;;;;32.50;27.00;;;;;;;;5024178;28;51248;-56
2022/10/31 04:53:27;;;;;;;;;35.75;29.50;;;;;;;;5025129;28;51105;-56
2022/10/31 04:56:11;;;;;;;;;30.50;27.75;;;;;;;;5037113;28;51045;-54
2022/10/31 04:58:56;;;;;;;;;33.75;26.50;;;;;;;;5039083;28;51413;-55
2022/10/31 05:01:40;;;;;;;;;29.50;20.75;;;;;;;;5030114;28;51139;-54
2022/10/31 05:04:25;;;;;;;;;29.50;26.75;;;;;;;;5030090;28;51148;-53
2022/10/31 05:07:09;;;;;;;;;39.00;29.75;;;;;;;;5038713;28;51144;-54
2022/10/31 05:09:53;;;;;;;;;34.75;26.50;;;;;;;;5027502;28;51098;-56
2022/10/31 05:12:45;;;;;;;;;30.75;27.75;;;;;;;;5029333;28;51069;-53
2022/10/31 05:15:29;;;;;;;;;34.50;24.25;;;;;;;;5028802;28;51525;-52
2022/10/31 05:18:13;;;;;;;;;27.75;23.50;;;;;;;;5037546;28;51246;-53
2022/10/31 05:20:58;;;;;;;;;31.50;24.50;;;;;;;;5039042;28;52242;-57
2022/10/31 05:23:42;;;;;;;;;35.50;29.00;;;;;;;;5029183;28;51447;-57
2022/10/31 05:26:27;;;;;;;;;30.75;25.75;;;;;;;;5031138;28;51142;-55
2022/10/31 05:29:11;;;;;;;;;25.50;23.50;;;;;;;;5009773;28;51062;-55
2022/10/31 05:31:56;;;;;;;;;37.00;31.00;;;;;;;;5036081;28;51007;-54
2022/10/31 05:34:40;;;;;;;;;42.25;33.75;;;;;;;;5033000;28;51140;-55
2022/10/31 05:37:24;;;;;;;;;42.00;33.75;;;;;;;;5036768;28;51082;-51
2022/10/31 05:40:11;;;;;;;;;44.25;35.25;;;;;;;;5021231;28;51584;-56
2022/10/31 05:42:58;;;;;;;;;48.00;39.75;;;;;;;;5025864;28;51138;-56
2022/10/31 05:45:42;;;;;;;;;55.25;42.00;;;;;;;;5023428;28;50959;-58
2022/10/31 05:48:27;;;;;;;;;56.75;45.75;;;;;;;;5025258;28;51431;-52
2022/10/31 05:51:12;;;;;;;;;59.50;45.50;;;;;;;;5025377;28;51103;-51
2022/10/31 05:53:56;;;;;;;;;55.00;43.00;;;;;;;;5029377;28;51073;-51
2022/10/31 05:56:40;;;;;;;;;51.50;41.50;;;;;;;;5028966;28;51169;-56
2022/10/31 05:59:25;;;;;;;;;52.75;41.75;;;;;;;;5039244;28;51406;-57
2022/10/31 06:02:09;;;;;;;;;57.00;45.25;;;;;;;;5035083;28;52208;-53
2022/10/31 06:04:53;;;;;;;;;62.00;46.50;;;;;;;;5037327;28;51210;-53
2022/10/31 06:07:38;;;;;;;;;57.75;45.50;;;;;;;;5020637;28;51212;-54
2022/10/31 06:10:22;;;;;;;;;56.75;45.00;;;;;;;;5034147;28;51560;-49
2022/10/31 06:13:07;;;;;;;;;59.50;47.50;;;;;;;;5036819;28;51492;-52
2022/10/31 06:15:51;;;;;;;;;63.25;49.25;;;;;;;;5035159;28;51120;-52
2022/10/31 06:18:36;;;;;;;;;62.00;47.75;;;;;;;;5030662;28;51255;-53
2022/10/31 06:21:20;;;;;;;;;72.00;56.50;;;;;;;;5035410;28;51143;-56
2022/10/31 06:24:04;;;;;;;;;68.00;53.00;;;;;;;;5033908;28;51186;-54
2022/10/31 06:26:48;;;;;;;;;63.25;49.75;;;;;;;;5028425;28;51131;-50
2022/10/31 06:29:33;;;;;;;;;60.25;48.00;;;;;;;;5037391;28;52217;-49
2022/10/31 06:32:18;;;;;;;;;67.25;54.75;;;;;;;;5037654;28;51272;-48
2022/10/31 06:35:02;;;;;;;;;71.75;59.00;;;;;;;;5039335;28;51459;-54
2022/10/31 06:37:53;;;;;;;;;70.50;57.50;;;;;;;;5029923;28;51429;-52
2022/10/31 06:40:37;;;;;;;;;72.25;61.25;;;;;;;;5019439;28;51693;-47
2022/10/31 06:43:21;;;;;;;;;66.50;52.00;;;;;;;;5037311;28;51342;-49
2022/10/31 06:46:06;;;;;;;;;67.25;53.75;;;;;;;;5035941;28;51036;-51
2022/10/31 06:48:50;;;;;;;;;70.00;55.25;;;;;;;;5022417;28;51553;-51
2022/10/31 06:51:35;;;;;;;;;70.75;57.75;;;;;;;;5023514;28;51207;-52
2022/10/31 06:54:19;;;;;;;;;74.50;61.25;;;;;;;;5026159;28;51046;-49
2022/10/31 06:57:03;;;;;;;;;77.25;67.50;;;;;;;;5026207;28;51168;-49
2022/10/31 06:59:48;;;;;;;;;86.50;73.25;;;;;;;;5029139;28;51019;-52
2022/10/31 07:02:32;;;;;;;;;86.75;77.25;;;;;;;;5029507;28;51429;-54
2022/10/31 07:05:19;;;;;;;;;84.00;72.00;;;;;;;;5038424;28;51065;-51
2022/10/31 07:08:04;;;;;;;;;73.25;62.75;;;;;;;;5038649;28;51152;-51
2022/10/31 07:10:52;;;;;;;;;66.00;51.00;;;;;;;;5031319;28;51077;-50
2022/10/31 07:13:36;;;;;;;;;54.25;42.50;;;;;;;;5018190;28;51151;-52
2022/10/31 07:16:21;;;;;;;;;46.00;37.75;;;;;;;;5018691;28;51099;-49
2022/10/31 07:19:05;;;;;;;;;54.50;42.50;;;;;;;;5036821;28;51068;-48
2022/10/31 07:21:50;;;;;;;;;50.25;40.00;;;;;;;;5028367;28;51112;-47
2022/10/31 07:24:34;;;;;;;;;48.00;37.00;;;;;;;;5022918;28;51148;-47
2022/10/31 07:27:18;;;;;;;;;45.00;37.75;;;;;;;;5023490;28;51159;-46
2022/10/31 07:30:03;;;;;;;;;44.25;34.75;;;;;;;;5029906;28;51244;-51
2022/10/31 07:32:48;;;;;;;;;46.25;36.00;;;;;;;;5031079;28;51602;-51
2022/10/31 07:35:34;;;;;;;;;43.50;35.50;;;;;;;;5032850;28;51032;-53
2022/10/31 07:38:18;;;;;;;;;37.25;33.00;;;;;;;;5039942;28;51509;-50
2022/10/31 07:41:03;;;;;;;;;38.75;31.25;;;;;;;;5013488;28;51127;-49
2022/10/31 07:43:47;;;;;;;;;41.00;33.75;;;;;;;;5030751;28;51197;-50
2022/10/31 07:46:32;;;;;;;;;44.75;36.50;;;;;;;;5035479;28;51260;-49
2022/10/31 07:49:16;;;;;;;;;40.25;31.75;;;;;;;;5027267;28;51135;-50
2022/10/31 07:52:00;;;;;;;;;33.50;29.50;;;;;;;;5025402;28;51576;-51
2022/10/31 07:54:45;;;;;;;;;36.00;31.00;;;;;;;;5035305;28;51789;-51
2022/10/31 07:57:29;;;;;;;;;30.00;28.50;;;;;;;;5040568;28;51506;-51
2022/10/31 08:00:14;;;;;;;;;26.50;22.25;;;;;;;;5042525;28;51155;-47
2022/10/31 08:03:03;;;;;;;;;21.50;18.50;;;;;;;;5039100;28;51041;-51
2022/10/31 08:05:47;;;;;;;;;19.25;13.75;;;;;;;;5029047;28;51152;-54
2022/10/31 08:08:32;;;;;;;;;23.75;18.75;;;;;;;;5032965;28;51587;-45
2022/10/31 08:11:16;;;;;;;;;13.50;11.25;;;;;;;;5023460;28;51066;-47
2022/10/31 08:14:01;;;;;;;;;17.25;14.50;;;;;;;;5042032;28;51195;-54
2022/10/31 08:16:45;;;;;;;;;10.00;8.25;;;;;;;;5041583;28;51563;-53
2022/10/31 08:19:29;;;;;;;;;8.75;8.75;;;;;;;;5041926;28;51405;-46
2022/10/31 08:22:14;;;;;;;;;13.75;13.75;;;;;;;;5034836;28;51479;-48
2022/10/31 08:24:58;;;;;;;;;13.00;9.25;;;;;;;;5035720;28;51157;-49
2022/10/31 08:27:43;;;;;;;;;10.75;9.00;;;;;;;;5034324;28;51214;-50
2022/10/31 08:30:28;;;;;;;;;15.00;11.00;;;;;;;;5028257;28;51153;-51
2022/10/31 08:33:14;;;;;;;;;9.50;5.25;;;;;;;;5040540;28;51132;-48
2022/10/31 08:35:58;;;;;;;;;16.25;14.75;;;;;;;;5028991;28;51200;-49
2022/10/31 08:38:43;;;;;;;;;12.50;11.50;;;;;;;;5027873;28;51082;-51
2022/10/31 08:41:27;;;;;;;;;14.75;10.00;;;;;;;;5027299;28;51243;-47
2022/10/31 08:44:12;;;;;;;;;10.00;8.75;;;;;;;;5040458;28;51585;-50
2022/10/31 08:46:56;;;;;;;;;13.50;12.50;;;;;;;;5031710;28;51168;-52
2022/10/31 08:49:41;;;;;;;;;16.00;12.25;;;;;;;;5038375;28;51175;-56
2022/10/31 08:52:26;;;;;;;;;15.25;12.25;;;;;;;;5025874;28;51358;-49
2022/10/31 08:55:10;;;;;;;;;12.50;11.00;;;;;;;;5029644;28;51099;-50
2022/10/31 08:57:58;;;;;;;;;13.25;12.00;;;;;;;;5027301;28;51400;-52
2022/10/31 09:00:42;;;;;;;;;15.50;10.25;;;;;;;;5026589;28;51128;-54
2022/10/31 09:03:28;;;;;;;;;20.50;12.75;;;;;;;;5035046;28;51411;-50
2022/10/31 09:06:12;;;;;;;;;13.50;9.00;;;;;;;;5034376;28;51071;-50
2022/10/31 09:08:57;;;;;;;;;13.00;10.50;;;;;;;;5039229;28;51264;-50
2022/10/31 09:11:41;;;;;;;;;12.25;10.25;;;;;;;;5036600;28;51170;-48
2022/10/31 09:14:26;;;;;;;;;16.25;14.50;;;;;;;;5035581;28;52294;-54
2022/10/31 09:17:10;;;;;;;;;13.00;11.50;;;;;;;;5035824;28;51041;-52
2022/10/31 09:19:55;;;;;;;;;5.00;5.00;;;;;;;;5025930;28;51208;-55
2022/10/31 09:22:39;;;;;;;;;4.25;3.75;;;;;;;;5029723;28;51479;-48
2022/10/31 09:25:24;;;;;;;;;6.00;3.50;;;;;;;;5030938;28;51400;-50
2022/10/31 09:28:10;;;;;;;;;3.00;3.00;;;;;;;;5041969;28;51155;-50
2022/10/31 09:30:54;;;;;;;;;5.00;3.50;;;;;;;;5041133;28;51430;-48
2022/10/31 09:33:38;;;;;;;;;11.00;3.00;;;;;;;;5035525;28;51802;-45
2022/10/31 09:36:23;;;;;;;;;6.00;4.75;;;;;;;;5033313;28;50998;-51
2022/10/31 09:39:07;;;;;;;;;7.75;3.75;;;;;;;;5021212;28;51129;-49
2022/10/31 09:42:27;;;;;;;;;4.00;3.25;;;;;;;;5023087;28;51223;-51
2022/10/31 09:45:16;;;;;;;;;4.00;4.00;;;;;;;;4924400;28;51210;-49
2022/10/31 09:48:09;;;;;;;;;6.75;3.75;;;;;;;;5034425;28;51519;-49
2022/10/31 09:51:20;;;;;;;;;3.25;3.25;;;;;;;;5039376;28;51104;-52
2022/10/31 09:54:20;;;;;;;;;5.25;2.00;;;;;;;;5029468;28;51173;-48
2022/10/31 09:57:05;;;;;;;;;5.00;3.75;;;;;;;;5030798;28;51639;-48
2022/10/31 09:59:50;;;;;;;;;5.25;3.25;;;;;;;;5022717;28;51334;-52
2022/10/31 10:02:34;;;;;;;;;5.00;3.00;;;;;;;;5039097;28;51036;-47
2022/10/31 10:05:33;;;;;;;;;6.25;3.00;;;;;;;;5028042;28;51081;-52
2022/10/31 10:08:23;;;;;;;;;4.75;1.50;;;;;;;;5033090;28;51357;-50
2022/10/31 10:11:10;;;;;;;;;4.25;3.00;;;;;;;;5027536;28;51132;-49
2022/10/31 10:14:13;;;;;;;;;5.25;3.50;;;;;;;;5037167;28;51238;-49
2022/10/31 10:17:01;;;;;;;;;4.50;4.25;;;;;;;;5028663;28;51089;-50
2022/10/31 10:19:48;;;;;;;;;4.00;3.00;;;;;;;;5037232;28;51112;-51
2022/10/31 10:22:39;;;;;;;;;4.50;3.00;;;;;;;;5034262;28;51152;-48
2022/10/31 10:25:26;;;;;;;;;5.25;3.25;;;;;;;;5033089;28;51073;-46
2022/10/31 10:28:10;;;;;;;;;7.00;6.50;;;;;;;;5037183;28;51037;-49
2022/10/31 10:31:10;;;;;;;;;8.00;4.50;;;;;;;;5028528;28;51125;-48
2022/10/31 10:34:06;;;;;;;;;6.00;5.00;;;;;;;;5036320;28;51877;-52
2022/10/31 10:36:54;;;;;;;;;4.25;3.75;;;;;;;;5040035;28;51182;-52
2022/10/31 10:39:41;;;;;;;;;4.75;2.75;;;;;;;;5027486;28;50975;-50
2022/10/31 10:48:43;;;;;;;;;6.50;6.25;;;;;;;;5037758;28;51417;-52
2022/10/31 10:51:37;;;;;;;;;9.00;4.00;;;;;;;;5022751;28;51132;-50
2022/10/31 10:54:30;;;;;;;;;5.50;2.75;;;;;;;;5024337;28;51022;-49
2022/10/31 10:57:22;;;;;;;;;6.25;5.75;;;;;;;;5037168;28;51400;-45
2022/10/31 11:00:16;;;;;;;;;10.75;5.50;;;;;;;;5031564;28;51461;-47
2022/10/31 11:03:01;;;;;;;;;6.00;3.25;;;;;;;;5022570;28;51162;-48
2022/10/31 11:05:52;;;;;;;;;7.50;6.00;;;;;;;;5040254;28;51120;-51
2022/10/31 11:08:36;;;;;;;;;6.75;5.00;;;;;;;;5036915;28;51595;-49
2022/10/31 11:11:25;;;;;;;;;4.75;4.25;;;;;;;;5024928;28;51097;-46
2022/10/31 11:14:15;;;;;;;;;6.75;3.00;;;;;;;;5029627;28;51218;-48
2022/10/31 11:17:19;;;;;;;;;4.00;4.00;;;;;;;;5020542;28;51045;-51
2022/10/31 11:20:05;;;;;;;;;5.25;3.50;;;;;;;;5024706;28;51133;-51
2022/10/31 11:23:00;;;;;;;;;5.75;4.50;;;;;;;;5021504;28;52308;-51
2022/10/31 11:25:53;;;;;;;;;7.75;4.75;;;;;;;;5022270;28;51108;-47
2022/10/31 11:28:37;;;;;;;;;7.00;5.75;;;;;;;;5035186;28;51132;-51
2022/10/31 11:31:22;;;;;;;;;5.25;4.25;;;;;;;;5039198;28;51128;-52
2022/10/31 11:34:13;;;;;;;;;5.75;4.00;;;;;;;;5022048;28;51070;-49
2022/10/31 11:37:04;;;;;;;;;9.00;4.75;;;;;;;;5036505;28;51254;-51
2022/10/31 11:39:53;;;;;;;;;6.00;4.50;;;;;;;;5037506;28;51351;-50
2022/10/31 11:42:41;;;;;;;;;6.75;3.25;;;;;;;;5025019;28;51088;-51
2022/10/31 11:45:25;;;;;;;;;7.50;4.50;;;;;;;;5018584;28;51108;-48
2022/10/31 11:48:17;;;;;;;;;0.00;0.00;;;;;;;;5019024;28;51061;-52
2022/10/31 11:51:02;;;;;;;;;6.50;5.25;;;;;;;;5030533;28;51411;-46
2022/10/31 11:53:51;;;;;;;;;6.25;4.25;;;;;;;;5026150;28;51337;-48
2022/10/31 11:56:40;;;;;;;;;5.00;3.50;;;;;;;;5024751;28;51412;-52
2022/10/31 11:59:24;;;;;;;;;6.50;3.50;;;;;;;;5025156;28;51117;-49
2022/10/31 12:02:22;;;;;;;;;7.75;5.25;;;;;;;;5027518;28;51618;-50
2022/10/31 12:05:11;;;;;;;;;5.25;5.25;;;;;;;;5005184;28;51151;-50
2022/10/31 12:07:55;;;;;;;;;9.75;5.50;;;;;;;;5023758;28;51748;-49
2022/10/31 12:10:47;;;;;;;;;2.00;0.50;;;;;;;;5029543;28;51257;-45
2022/10/31 12:13:39;;;;;;;;;4.50;4.00;;;;;;;;5023337;28;51133;-49
2022/10/31 12:16:42;;;;;;;;;11.25;6.00;;;;;;;;4988937;28;51290;-50
2022/10/31 12:19:36;;;;;;;;;7.25;4.50;;;;;;;;5031650;28;52552;-47
2022/10/31 12:22:35;;;;;;;;;8.00;4.75;;;;;;;;5029134;28;51257;-46
2022/10/31 12:25:46;;;;;;;;;7.75;4.25;;;;;;;;5028160;28;51120;-44
2022/10/31 12:28:49;;;;;;;;;9.00;6.50;;;;;;;;5014973;28;51019;-48
2022/10/31 12:31:57;;;;;;;;;6.00;4.25;;;;;;;;5029981;28;51120;-53
2022/10/31 12:34:41;;;;;;;;;6.25;4.00;;;;;;;;5033507;28;51285;-47
2022/10/31 12:37:41;;;;;;;;;7.50;3.50;;;;;;;;5032362;28;51165;-47
2022/10/31 12:40:25;;;;;;;;;3.50;3.50;;;;;;;;5023906;28;51275;-52
2022/10/31 12:43:27;;;;;;;;;5.00;3.00;;;;;;;;5024419;28;51424;-45
2022/10/31 12:46:32;;;;;;;;;6.75;4.00;;;;;;;;5038183;28;51195;-51
2022/10/31 12:49:23;;;;;;;;;0.00;0.00;;;;;;;;5023926;28;51273;-48
2022/10/31 12:52:25;;;;;;;;;3.00;0.50;;;;;;;;5023425;28;51092;-49
2022/10/31 12:55:16;;;;;;;;;7.00;6.25;;;;;;;;5030867;28;52078;-46
2022/10/31 12:58:10;;;;;;;;;7.25;4.00;;;;;;;;5028405;28;51116;-49
2022/10/31 13:01:02;;;;;;;;;4.00;3.00;;;;;;;;5020579;28;51195;-54
2022/10/31 13:04:05;;;;;;;;;6.00;2.75;;;;;;;;5020698;28;51430;-46
2022/10/31 13:06:51;;;;;;;;;2.75;2.75;;;;;;;;5023598;28;51080;-48
2022/10/31 13:09:55;;;;;;;;;3.75;3.00;;;;;;;;5017509;28;51614;-50
2022/10/31 13:12:39;;;;;;;;;6.50;3.00;;;;;;;;5022480;28;51273;-50
2022/10/31 13:15:24;;;;;;;;;9.75;4.75;;;;;;;;5036773;28;51357;-48
2022/10/31 13:18:15;;;;;;;;;6.25;4.75;;;;;;;;5039817;28;51069;-50
2022/10/31 13:21:01;;;;;;;;;5.00;3.75;;;;;;;;5035030;28;51017;-50
2022/10/31 13:23:48;;;;;;;;;8.25;7.00;;;;;;;;5023288;28;51035;-46
2022/10/31 13:26:38;;;;;;;;;3.00;1.50;;;;;;;;5035093;28;51502;-48
2022/10/31 13:29:25;;;;;;;;;8.50;5.50;;;;;;;;5025637;28;51208;-48
2022/10/31 13:32:10;;;;;;;;;12.00;5.25;;;;;;;;5035571;28;51250;-47
2022/10/31 13:34:56;;;;;;;;;4.75;2.50;;;;;;;;5022780;28;51139;-50
2022/10/31 13:37:43;;;;;;;;;7.50;4.25;;;;;;;;5024636;28;51292;-50
2022/10/31 13:40:30;;;;;;;;;9.50;6.00;;;;;;;;5035798;28;51155;-45
2022/10/31 13:43:28;;;;;;;;;4.50;3.00;;;;;;;;5025891;28;51100;-47
2022/10/31 13:46:31;;;;;;;;;7.50;4.75;;;;;;;;5035829;28;51124;-53
2022/10/31 13:49:26;;;;;;;;;3.50;3.50;;;;;;;;5023051;28;51034;-47
2022/10/31 13:52:11;;;;;;;;;9.75;7.25;;;;;;;;5039867;28;51367;-51
2022/10/31 13:54:58;;;;;;;;;6.50;2.50;;;;;;;;5021085;28;51109;-51
2022/10/31 13:57:43;;;;;;;;;4.50;2.00;;;;;;;;5037053;28;51361;-49
2022/10/31 14:00:28;;;;;;;;;8.50;5.25;;;;;;;;5033554;28;51587;-51
2022/10/31 14:03:19;;;;;;;;;6.25;5.25;;;;;;;;5022576;28;51083;-48
2022/10/31 14:06:04;;;;;;;;;9.00;4.50;;;;;;;;5024317;28;51112;-46
2022/10/31 14:08:51;;;;;;;;;7.25;4.25;;;;;;;;5025708;28;51062;-46
2022/10/31 14:11:35;;;;;;;;;10.00;6.25;;;;;;;;5020653;28;51117;-44
2022/10/31 14:14:20;;;;;;;;;6.50;3.50;;;;;;;;5028985;28;51043;-51
2022/10/31 14:17:05;;;;;;;;;8.25;2.75;;;;;;;;5038928;28;51356;-48
2022/10/31 14:19:56;;;;;;;;;4.50;4.50;;;;;;;;5039822;28;51495;-49
2022/10/31 14:22:41;;;;;;;;;5.00;3.75;;;;;;;;5040097;28;51173;-49
2022/10/31 14:25:25;;;;;;;;;7.00;3.75;;;;;;;;5037050;28;51052;-49
2022/10/31 14:28:31;;;;;;;;;6.25;5.25;;;;;;;;5019543;28;51163;-49
2022/10/31 14:31:34;;;;;;;;;2.50;2.00;;;;;;;;5038569;28;51145;-49
2022/10/31 14:34:22;;;;;;;;;5.25;4.00;;;;;;;;5039620;28;51171;-51
2022/10/31 14:37:22;;;;;;;;;6.00;3.75;;;;;;;;5038913;28;51255;-53
2022/10/31 14:40:25;;;;;;;;;5.00;2.00;;;;;;;;5039526;28;51025;-46
2022/10/31 14:43:18;;;;;;;;;7.50;5.50;;;;;;;;5018283;28;51137;-48
2022/10/31 14:46:06;;;;;;;;;10.00;4.50;;;;;;;;5036163;28;51300;-50
2022/10/31 14:49:03;;;;;;;;;5.75;3.25;;;;;;;;5026314;28;51199;-50
2022/10/31 14:51:48;;;;;;;;;4.25;4.00;;;;;;;;5018808;28;51106;-47
2022/10/31 14:54:36;;;;;;;;;5.00;3.75;;;;;;;;5019464;28;51102;-49
2022/10/31 14:57:32;;;;;;;;;8.25;7.00;;;;;;;;5019518;28;51267;-45
2022/10/31 15:00:17;;;;;;;;;2.75;2.00;;;;;;;;5020366;28;51321;-47
2022/10/31 15:03:20;;;;;;;;;5.25;3.50;;;;;;;;5019409;28;51253;-46
2022/10/31 15:06:16;;;;;;;;;5.75;3.50;;;;;;;;5035224;28;51071;-49
2022/10/31 15:09:00;;;;;;;;;6.00;5.00;;;;;;;;5039232;28;51204;-49
2022/10/31 15:11:45;;;;;;;;;8.00;5.00;;;;;;;;5038575;28;51054;-50
2022/10/31 15:14:31;;;;;;;;;6.50;4.50;;;;;;;;5039345;28;51017;-49
2022/10/31 15:17:15;;;;;;;;;0.00;0.00;;;;;;;;5039235;28;51099;-47
2022/10/31 15:19:59;;;;;;;;;8.00;5.50;;;;;;;;5039446;28;51413;-49
2022/10/31 15:22:44;;;;;;;;;8.75;6.25;;;;;;;;5039333;28;51144;-47
2022/10/31 15:25:32;;;;;;;;;9.00;5.50;;;;;;;;5038119;28;51064;-47
2022/10/31 15:28:22;;;;;;;;;7.50;6.25;;;;;;;;5039151;28;51454;-46
2022/10/31 15:31:14;;;;;;;;;8.00;7.75;;;;;;;;5039143;28;51195;-47
2022/10/31 15:34:01;;;;;;;;;12.75;7.25;;;;;;;;5039141;28;51026;-51
2022/10/31 15:36:47;;;;;;;;;13.75;7.75;;;;;;;;5038740;28;51107;-48
2022/10/31 15:39:31;;;;;;;;;9.25;6.25;;;;;;;;5036502;28;51108;-49
2022/10/31 15:42:25;;;;;;;;;7.75;4.00;;;;;;;;5034630;28;51482;-50
2022/10/31 15:45:09;;;;;;;;;7.50;6.75;;;;;;;;5025431;28;51104;-47
2022/10/31 15:47:53;;;;;;;;;11.25;7.00;;;;;;;;5019043;28;51461;-46
2022/10/31 15:50:40;;;;;;;;;11.25;8.75;;;;;;;;5019092;28;51180;-45
2022/10/31 15:53:27;;;;;;;;;11.75;6.75;;;;;;;;5018827;28;51445;-48
2022/10/31 15:56:13;;;;;;;;;7.00;7.00;;;;;;;;5022474;28;51145;-47
2022/10/31 15:59:00;;;;;;;;;8.25;7.50;;;;;;;;5022694;28;51110;-47
2022/10/31 16:01:55;;;;;;;;;8.00;6.50;;;;;;;;5022297;28;51471;-47
2022/10/31 16:04:58;;;;;;;;;7.75;6.75;;;;;;;;5022659;28;51065;-55
2022/10/31 16:07:48;;;;;;;;;6.00;6.00;;;;;;;;5029339;28;51147;-47
2022/10/31 16:10:34;;;;;;;;;7.75;7.25;;;;;;;;5031505;28;51145;-48
2022/10/31 16:13:23;;;;;;;;;6.50;6.50;;;;;;;;5022260;28;50998;-49
2022/10/31 16:16:12;;;;;;;;;9.25;6.00;;;;;;;;5027212;28;51165;-48
2022/10/31 16:18:57;;;;;;;;;5.75;3.50;;;;;;;;5041605;28;51447;-48
2022/10/31 16:21:41;;;;;;;;;11.50;7.75;;;;;;;;5042389;28;51106;-47
2022/10/31 16:24:28;;;;;;;;;8.00;6.50;;;;;;;;5040540;28;51348;-51
2022/10/31 16:27:23;;;;;;;;;10.25;8.00;;;;;;;;5022979;28;51122;-48
2022/10/31 16:30:25;;;;;;;;;10.75;8.00;;;;;;;;5034795;28;51135;-48
2022/10/31 16:33:22;;;;;;;;;11.00;6.75;;;;;;;;5021674;28;51018;-45
2022/10/31 16:36:24;;;;;;;;;8.75;6.25;;;;;;;;5021934;28;51188;-46